sensor_id;sensor_type;location;lat;lon;timestamp;P1;durP1;ratioP1;P2;durP2;ratioP2
52614;SDS011;38508;53.158;6.614;2023-02-28T00:01:31;7.30;;;3.42;;
52614;SDS011;38508;53.158;6.614;2023-02-28T00:03:57;13.05;;;3.85;;
52614;SDS011;38508;53.158;6.614;2023-02-28T00:06:23;17.92;;;4.25;;
52614;SDS011;38508;53.158;6.614;2023-02-28T00:08:49;10.20;;;3.90;;
52614;SDS011;38508;53.158;6.614;2023-02-28T00:11:15;10.30;;;3.55;;
52614;SDS011;38508;53.158;6.614;2023-02-28T00:13:42;9.07;;;3.97;;
52614;SDS011;38508;53.158;6.614;2023-02-28T00:16:12;6.30;;;3.70;;
52614;SDS011;38508;53.158;6.614;2023-02-28T00:18:46;10.38;;;4.20;;
52614;SDS011;38508;53.158;6.614;2023-02-28T00:21:13;8.48;;;3.53;;
52614;SDS011;38508;53.158;6.614;2023-02-28T00:23:39;11.52;;;3.88;;
52614;SDS011;38508;53.158;6.614;2023-02-28T00:26:05;11.18;;;3.78;;
52614;SDS011;38508;53.158;6.614;2023-02-28T00:28:31;10.68;;;4.82;;
52614;SDS011;38508;53.158;6.614;2023-02-28T00:30:57;14.75;;;4.43;;
52614;SDS011;38508;53.158;6.614;2023-02-28T00:33:24;9.82;;;4.22;;
52614;SDS011;38508;53.158;6.614;2023-02-28T00:35:51;6.63;;;3.58;;
52614;SDS011;38508;53.158;6.614;2023-02-28T00:38:16;8.50;;;4.15;;
52614;SDS011;38508;53.158;6.614;2023-02-28T00:40:42;10.20;;;3.78;;
52614;SDS011;38508;53.158;6.614;2023-02-28T00:43:08;7.13;;;3.42;;
52614;SDS011;38508;53.158;6.614;2023-02-28T00:45:33;8.57;;;4.00;;
52614;SDS011;38508;53.158;6.614;2023-02-28T00:47:59;8.05;;;3.78;;
52614;SDS011;38508;53.158;6.614;2023-02-28T00:50:25;14.32;;;5.03;;
52614;SDS011;38508;53.158;6.614;2023-02-28T00:52:50;17.00;;;5.00;;
52614;SDS011;38508;53.158;6.614;2023-02-28T00:55:16;10.15;;;4.20;;
52614;SDS011;38508;53.158;6.614;2023-02-28T00:57:43;10.88;;;4.40;;
52614;SDS011;38508;53.158;6.614;2023-02-28T01:00:09;9.15;;;3.58;;
52614;SDS011;38508;53.158;6.614;2023-02-28T01:02:36;12.35;;;4.05;;
52614;SDS011;38508;53.158;6.614;2023-02-28T01:05:01;10.25;;;3.70;;
52614;SDS011;38508;53.158;6.614;2023-02-28T01:07:28;8.40;;;3.75;;
52614;SDS011;38508;53.158;6.614;2023-02-28T01:09:54;13.18;;;4.32;;
52614;SDS011;38508;53.158;6.614;2023-02-28T01:12:19;12.45;;;4.50;;
52614;SDS011;38508;53.158;6.614;2023-02-28T01:14:45;11.05;;;4.30;;
52614;SDS011;38508;53.158;6.614;2023-02-28T01:17:11;7.07;;;3.97;;
52614;SDS011;38508;53.158;6.614;2023-02-28T01:19:36;13.30;;;4.38;;
52614;SDS011;38508;53.158;6.614;2023-02-28T01:22:05;9.45;;;3.97;;
52614;SDS011;38508;53.158;6.614;2023-02-28T01:24:31;7.13;;;3.88;;
52614;SDS011;38508;53.158;6.614;2023-02-28T01:26:58;9.93;;;4.10;;
52614;SDS011;38508;53.158;6.614;2023-02-28T01:29:24;9.05;;;3.78;;
52614;SDS011;38508;53.158;6.614;2023-02-28T01:31:49;10.05;;;4.28;;
52614;SDS011;38508;53.158;6.614;2023-02-28T01:34:15;11.02;;;4.43;;
52614;SDS011;38508;53.158;6.614;2023-02-28T01:36:41;12.80;;;4.80;;
52614;SDS011;38508;53.158;6.614;2023-02-28T01:39:07;9.45;;;4.30;;
52614;SDS011;38508;53.158;6.614;2023-02-28T01:41:33;11.95;;;4.43;;
52614;SDS011;38508;53.158;6.614;2023-02-28T01:44:04;9.90;;;4.38;;
52614;SDS011;38508;53.158;6.614;2023-02-28T01:46:33;14.00;;;5.97;;
52614;SDS011;38508;53.158;6.614;2023-02-28T01:49:02;8.15;;;5.28;;
52614;SDS011;38508;53.158;6.614;2023-02-28T01:54:14;10.32;;;4.57;;
52614;SDS011;38508;53.158;6.614;2023-02-28T01:56:49;15.82;;;5.72;;
52614;SDS011;38508;53.158;6.614;2023-02-28T01:59:22;11.93;;;5.13;;
52614;SDS011;38508;53.158;6.614;2023-02-28T02:01:52;10.70;;;4.97;;
52614;SDS011;38508;53.158;6.614;2023-02-28T02:04:18;16.45;;;6.80;;
52614;SDS011;38508;53.158;6.614;2023-02-28T02:06:46;11.40;;;5.68;;
52614;SDS011;38508;53.158;6.614;2023-02-28T02:09:13;10.77;;;5.80;;
52614;SDS011;38508;53.158;6.614;2023-02-28T02:11:39;14.52;;;5.88;;
52614;SDS011;38508;53.158;6.614;2023-02-28T02:22:41;12.48;;;5.97;;
52614;SDS011;38508;53.158;6.614;2023-02-28T02:25:25;12.02;;;5.55;;
52614;SDS011;38508;53.158;6.614;2023-02-28T02:36:56;12.70;;;5.90;;
52614;SDS011;38508;53.158;6.614;2023-02-28T02:39:43;10.85;;;6.05;;
52614;SDS011;38508;53.158;6.614;2023-02-28T02:42:24;9.13;;;5.47;;
52614;SDS011;38508;53.158;6.614;2023-02-28T02:45:00;17.00;;;7.28;;
52614;SDS011;38508;53.158;6.614;2023-02-28T02:47:31;10.07;;;5.20;;
52614;SDS011;38508;53.158;6.614;2023-02-28T02:49:59;14.98;;;5.80;;
52614;SDS011;38508;53.158;6.614;2023-02-28T02:52:39;14.18;;;6.13;;
52614;SDS011;38508;53.158;6.614;2023-02-28T02:55:09;15.13;;;7.25;;
52614;SDS011;38508;53.158;6.614;2023-02-28T02:57:43;12.15;;;6.10;;
52614;SDS011;38508;53.158;6.614;2023-02-28T03:00:11;11.52;;;6.30;;
52614;SDS011;38508;53.158;6.614;2023-02-28T03:02:39;11.75;;;5.97;;
52614;SDS011;38508;53.158;6.614;2023-02-28T03:05:08;20.48;;;7.38;;
52614;SDS011;38508;53.158;6.614;2023-02-28T03:10:31;13.73;;;5.70;;
52614;SDS011;38508;53.158;6.614;2023-02-28T03:24:42;13.07;;;5.97;;
52614;SDS011;38508;53.158;6.614;2023-02-28T03:27:27;13.93;;;6.07;;
52614;SDS011;38508;53.158;6.614;2023-02-28T03:33:02;11.88;;;5.45;;
52614;SDS011;38508;53.158;6.614;2023-02-28T03:35:34;15.10;;;5.70;;
52614;SDS011;38508;53.158;6.614;2023-02-28T03:38:14;14.13;;;6.40;;
52614;SDS011;38508;53.158;6.614;2023-02-28T03:40:49;13.45;;;5.88;;
52614;SDS011;38508;53.158;6.614;2023-02-28T03:43:22;13.18;;;6.38;;
52614;SDS011;38508;53.158;6.614;2023-02-28T03:45:52;17.30;;;7.90;;
52614;SDS011;38508;53.158;6.614;2023-02-28T03:48:24;12.32;;;5.32;;
52614;SDS011;38508;53.158;6.614;2023-02-28T03:50:58;18.05;;;6.22;;
52614;SDS011;38508;53.158;6.614;2023-02-28T03:53:32;10.20;;;5.63;;
52614;SDS011;38508;53.158;6.614;2023-02-28T03:58:37;14.85;;;6.35;;
52614;SDS011;38508;53.158;6.614;2023-02-28T04:01:58;12.20;;;6.18;;
52614;SDS011;38508;53.158;6.614;2023-02-28T04:03:59;13.73;;;6.80;;
52614;SDS011;38508;53.158;6.614;2023-02-28T04:06:24;9.70;;;5.78;;
52614;SDS011;38508;53.158;6.614;2023-02-28T04:08:51;12.52;;;5.97;;
52614;SDS011;38508;53.158;6.614;2023-02-28T04:13:47;10.23;;;5.72;;
52614;SDS011;38508;53.158;6.614;2023-02-28T04:16:13;11.10;;;5.85;;
52614;SDS011;38508;53.158;6.614;2023-02-28T04:18:39;9.55;;;5.25;;
52614;SDS011;38508;53.158;6.614;2023-02-28T04:21:05;9.02;;;5.07;;
52614;SDS011;38508;53.158;6.614;2023-02-28T04:23:32;11.27;;;5.15;;
52614;SDS011;38508;53.158;6.614;2023-02-28T04:25:58;9.52;;;5.20;;
52614;SDS011;38508;53.158;6.614;2023-02-28T04:28:24;9.20;;;4.72;;
52614;SDS011;38508;53.158;6.614;2023-02-28T04:33:22;8.70;;;5.65;;
52614;SDS011;38508;53.158;6.614;2023-02-28T04:35:48;11.85;;;5.43;;
52614;SDS011;38508;53.158;6.614;2023-02-28T04:38:25;11.90;;;5.82;;
52614;SDS011;38508;53.158;6.614;2023-02-28T04:40:51;9.18;;;5.07;;
52614;SDS011;38508;53.158;6.614;2023-02-28T04:43:17;9.95;;;5.15;;
52614;SDS011;38508;53.158;6.614;2023-02-28T04:45:42;10.75;;;5.38;;
52614;SDS011;38508;53.158;6.614;2023-02-28T04:48:08;10.95;;;4.97;;
52614;SDS011;38508;53.158;6.614;2023-02-28T04:50:33;9.70;;;5.10;;
52614;SDS011;38508;53.158;6.614;2023-02-28T04:52:59;8.23;;;5.20;;
52614;SDS011;38508;53.158;6.614;2023-02-28T04:55:25;9.30;;;5.22;;
52614;SDS011;38508;53.158;6.614;2023-02-28T04:57:50;9.60;;;4.95;;
52614;SDS011;38508;53.158;6.614;2023-02-28T05:00:16;10.68;;;5.13;;
52614;SDS011;38508;53.158;6.614;2023-02-28T05:02:42;10.82;;;5.50;;
52614;SDS011;38508;53.158;6.614;2023-02-28T05:05:08;10.13;;;5.65;;
52614;SDS011;38508;53.158;6.614;2023-02-28T05:07:34;11.98;;;5.40;;
52614;SDS011;38508;53.158;6.614;2023-02-28T05:09:59;15.43;;;6.15;;
52614;SDS011;38508;53.158;6.614;2023-02-28T05:12:25;15.23;;;6.22;;
52614;SDS011;38508;53.158;6.614;2023-02-28T05:14:50;11.15;;;6.03;;
52614;SDS011;38508;53.158;6.614;2023-02-28T05:17:16;10.38;;;5.80;;
52614;SDS011;38508;53.158;6.614;2023-02-28T05:19:42;13.73;;;6.55;;
52614;SDS011;38508;53.158;6.614;2023-02-28T05:22:12;11.35;;;6.18;;
52614;SDS011;38508;53.158;6.614;2023-02-28T05:24:40;12.88;;;6.43;;
52614;SDS011;38508;53.158;6.614;2023-02-28T05:27:07;13.85;;;7.32;;
52614;SDS011;38508;53.158;6.614;2023-02-28T05:29:33;13.30;;;8.15;;
52614;SDS011;38508;53.158;6.614;2023-02-28T05:31:59;13.85;;;7.53;;
52614;SDS011;38508;53.158;6.614;2023-02-28T05:34:25;15.40;;;7.80;;
52614;SDS011;38508;53.158;6.614;2023-02-28T05:36:50;17.15;;;8.20;;
52614;SDS011;38508;53.158;6.614;2023-02-28T05:39:16;15.68;;;7.13;;
52614;SDS011;38508;53.158;6.614;2023-02-28T05:41:42;16.23;;;8.15;;
52614;SDS011;38508;53.158;6.614;2023-02-28T05:44:08;13.35;;;7.22;;
52614;SDS011;38508;53.158;6.614;2023-02-28T05:46:34;15.93;;;7.55;;
52614;SDS011;38508;53.158;6.614;2023-02-28T05:49:00;15.27;;;7.72;;
52614;SDS011;38508;53.158;6.614;2023-02-28T05:51:26;13.55;;;7.95;;
52614;SDS011;38508;53.158;6.614;2023-02-28T05:53:52;15.55;;;8.23;;
52614;SDS011;38508;53.158;6.614;2023-02-28T05:56:17;16.95;;;7.85;;
52614;SDS011;38508;53.158;6.614;2023-02-28T05:58:43;15.45;;;7.82;;
52614;SDS011;38508;53.158;6.614;2023-02-28T06:03:58;14.52;;;7.65;;
52614;SDS011;38508;53.158;6.614;2023-02-28T06:06:28;14.65;;;8.35;;
52614;SDS011;38508;53.158;6.614;2023-02-28T06:08:59;17.58;;;9.60;;
52614;SDS011;38508;53.158;6.614;2023-02-28T06:11:26;14.57;;;9.10;;
52614;SDS011;38508;53.158;6.614;2023-02-28T06:13:59;21.27;;;10.57;;
52614;SDS011;38508;53.158;6.614;2023-02-28T06:16:27;16.08;;;8.93;;
52614;SDS011;38508;53.158;6.614;2023-02-28T06:18:53;16.77;;;9.27;;
52614;SDS011;38508;53.158;6.614;2023-02-28T06:21:23;23.55;;;9.30;;
52614;SDS011;38508;53.158;6.614;2023-02-28T06:23:49;21.20;;;9.55;;
52614;SDS011;38508;53.158;6.614;2023-02-28T06:26:14;20.17;;;9.65;;
52614;SDS011;38508;53.158;6.614;2023-02-28T06:28:40;20.60;;;8.80;;
52614;SDS011;38508;53.158;6.614;2023-02-28T06:31:12;19.02;;;9.43;;
52614;SDS011;38508;53.158;6.614;2023-02-28T06:33:40;20.73;;;9.15;;
52614;SDS011;38508;53.158;6.614;2023-02-28T06:36:06;15.40;;;8.70;;
52614;SDS011;38508;53.158;6.614;2023-02-28T06:38:33;17.02;;;9.25;;
52614;SDS011;38508;53.158;6.614;2023-02-28T06:40:59;20.98;;;8.80;;
52614;SDS011;38508;53.158;6.614;2023-02-28T06:43:27;19.23;;;9.60;;
52614;SDS011;38508;53.158;6.614;2023-02-28T06:45:54;17.70;;;9.50;;
52614;SDS011;38508;53.158;6.614;2023-02-28T06:48:21;17.90;;;9.77;;
52614;SDS011;38508;53.158;6.614;2023-02-28T06:50:47;19.42;;;9.68;;
52614;SDS011;38508;53.158;6.614;2023-02-28T06:53:12;17.40;;;9.23;;
52614;SDS011;38508;53.158;6.614;2023-02-28T06:55:39;20.30;;;10.30;;
52614;SDS011;38508;53.158;6.614;2023-02-28T06:58:04;17.63;;;9.38;;
52614;SDS011;38508;53.158;6.614;2023-02-28T07:00:40;17.58;;;9.23;;
52614;SDS011;38508;53.158;6.614;2023-02-28T07:03:07;22.70;;;10.05;;
52614;SDS011;38508;53.158;6.614;2023-02-28T07:05:34;22.05;;;11.35;;
52614;SDS011;38508;53.158;6.614;2023-02-28T07:08:01;20.25;;;10.18;;
52614;SDS011;38508;53.158;6.614;2023-02-28T07:10:28;22.05;;;11.40;;
52614;SDS011;38508;53.158;6.614;2023-02-28T07:12:54;21.67;;;11.57;;
52614;SDS011;38508;53.158;6.614;2023-02-28T07:15:20;27.63;;;12.15;;
52614;SDS011;38508;53.158;6.614;2023-02-28T07:17:45;22.00;;;11.88;;
52614;SDS011;38508;53.158;6.614;2023-02-28T07:20:11;27.08;;;13.30;;
52614;SDS011;38508;53.158;6.614;2023-02-28T07:22:37;32.85;;;14.13;;
52614;SDS011;38508;53.158;6.614;2023-02-28T07:25:04;26.00;;;12.10;;
52614;SDS011;38508;53.158;6.614;2023-02-28T07:27:30;29.23;;;12.63;;
52614;SDS011;38508;53.158;6.614;2023-02-28T07:29:56;24.38;;;11.32;;
52614;SDS011;38508;53.158;6.614;2023-02-28T07:32:22;32.50;;;14.18;;
52614;SDS011;38508;53.158;6.614;2023-02-28T07:34:48;20.58;;;10.82;;
52614;SDS011;38508;53.158;6.614;2023-02-28T07:37:14;23.30;;;12.05;;
52614;SDS011;38508;53.158;6.614;2023-02-28T07:39:40;23.95;;;12.13;;
52614;SDS011;38508;53.158;6.614;2023-02-28T07:42:09;22.00;;;10.43;;
52614;SDS011;38508;53.158;6.614;2023-02-28T07:44:37;26.90;;;12.30;;
52614;SDS011;38508;53.158;6.614;2023-02-28T07:47:08;22.65;;;11.63;;
52614;SDS011;38508;53.158;6.614;2023-02-28T07:49:37;18.15;;;10.82;;
52614;SDS011;38508;53.158;6.614;2023-02-28T07:52:04;21.15;;;10.82;;
52614;SDS011;38508;53.158;6.614;2023-02-28T07:54:31;23.90;;;12.77;;
52614;SDS011;38508;53.158;6.614;2023-02-28T07:56:57;22.33;;;10.65;;
52614;SDS011;38508;53.158;6.614;2023-02-28T07:59:23;20.00;;;10.25;;
52614;SDS011;38508;53.158;6.614;2023-02-28T08:01:49;29.00;;;13.82;;
52614;SDS011;38508;53.158;6.614;2023-02-28T08:04:18;26.60;;;12.05;;
52614;SDS011;38508;53.158;6.614;2023-02-28T08:06:44;20.63;;;11.00;;
52614;SDS011;38508;53.158;6.614;2023-02-28T08:09:10;29.23;;;13.00;;
52614;SDS011;38508;53.158;6.614;2023-02-28T08:11:36;22.98;;;11.27;;
52614;SDS011;38508;53.158;6.614;2023-02-28T08:14:02;23.23;;;13.02;;
52614;SDS011;38508;53.158;6.614;2023-02-28T08:16:28;21.92;;;12.27;;
52614;SDS011;38508;53.158;6.614;2023-02-28T08:18:53;21.45;;;11.40;;
52614;SDS011;38508;53.158;6.614;2023-02-28T08:21:19;28.52;;;13.80;;
52614;SDS011;38508;53.158;6.614;2023-02-28T08:23:46;23.77;;;11.93;;
52614;SDS011;38508;53.158;6.614;2023-02-28T08:26:13;24.20;;;12.15;;
52614;SDS011;38508;53.158;6.614;2023-02-28T08:28:39;20.52;;;11.23;;
52614;SDS011;38508;53.158;6.614;2023-02-28T08:31:09;20.83;;;11.15;;
52614;SDS011;38508;53.158;6.614;2023-02-28T08:33:36;21.48;;;12.32;;
52614;SDS011;38508;53.158;6.614;2023-02-28T08:36:02;24.65;;;12.82;;
52614;SDS011;38508;53.158;6.614;2023-02-28T08:38:28;22.40;;;11.52;;
52614;SDS011;38508;53.158;6.614;2023-02-28T08:40:57;18.55;;;9.55;;
52614;SDS011;38508;53.158;6.614;2023-02-28T08:43:24;24.75;;;12.52;;
52614;SDS011;38508;53.158;6.614;2023-02-28T08:45:53;22.30;;;11.60;;
52614;SDS011;38508;53.158;6.614;2023-02-28T08:48:21;22.27;;;11.98;;
52614;SDS011;38508;53.158;6.614;2023-02-28T08:50:57;25.50;;;12.00;;
52614;SDS011;38508;53.158;6.614;2023-02-28T08:53:24;22.65;;;11.95;;
52614;SDS011;38508;53.158;6.614;2023-02-28T08:55:57;18.95;;;10.98;;
52614;SDS011;38508;53.158;6.614;2023-02-28T08:58:24;22.90;;;11.68;;
52614;SDS011;38508;53.158;6.614;2023-02-28T09:00:50;24.20;;;12.07;;
52614;SDS011;38508;53.158;6.614;2023-02-28T09:03:16;25.67;;;12.93;;
52614;SDS011;38508;53.158;6.614;2023-02-28T09:05:51;27.33;;;13.93;;
52614;SDS011;38508;53.158;6.614;2023-02-28T09:08:18;29.67;;;14.27;;
52614;SDS011;38508;53.158;6.614;2023-02-28T09:10:43;25.48;;;12.50;;
52614;SDS011;38508;53.158;6.614;2023-02-28T09:13:09;23.20;;;12.07;;
52614;SDS011;38508;53.158;6.614;2023-02-28T09:15:36;22.05;;;10.88;;
52614;SDS011;38508;53.158;6.614;2023-02-28T09:18:02;20.90;;;11.27;;
52614;SDS011;38508;53.158;6.614;2023-02-28T09:20:28;20.05;;;11.30;;
52614;SDS011;38508;53.158;6.614;2023-02-28T09:22:54;19.95;;;10.60;;
52614;SDS011;38508;53.158;6.614;2023-02-28T09:25:20;21.58;;;11.93;;
52614;SDS011;38508;53.158;6.614;2023-02-28T09:27:46;19.90;;;10.85;;
52614;SDS011;38508;53.158;6.614;2023-02-28T09:30:12;19.10;;;10.80;;
52614;SDS011;38508;53.158;6.614;2023-02-28T09:32:38;23.27;;;11.48;;
52614;SDS011;38508;53.158;6.614;2023-02-28T09:35:04;24.15;;;11.77;;
52614;SDS011;38508;53.158;6.614;2023-02-28T09:37:30;21.63;;;10.85;;
52614;SDS011;38508;53.158;6.614;2023-02-28T09:39:56;19.63;;;11.10;;
52614;SDS011;38508;53.158;6.614;2023-02-28T09:42:25;25.15;;;12.18;;
52614;SDS011;38508;53.158;6.614;2023-02-28T09:44:59;19.85;;;10.65;;
52614;SDS011;38508;53.158;6.614;2023-02-28T09:47:31;20.15;;;10.52;;
52614;SDS011;38508;53.158;6.614;2023-02-28T09:55:48;19.80;;;11.07;;
52614;SDS011;38508;53.158;6.614;2023-02-28T09:58:33;22.13;;;11.43;;
52614;SDS011;38508;53.158;6.614;2023-02-28T10:01:12;20.00;;;9.40;;
52614;SDS011;38508;53.158;6.614;2023-02-28T10:06:20;21.17;;;10.32;;
52614;SDS011;38508;53.158;6.614;2023-02-28T10:11:35;22.45;;;10.00;;
52614;SDS011;38508;53.158;6.614;2023-02-28T10:21:50;16.23;;;7.50;;
52614;SDS011;38508;53.158;6.614;2023-02-28T10:24:27;16.58;;;7.93;;
52614;SDS011;38508;53.158;6.614;2023-02-28T10:27:19;9.73;;;5.68;;
52614;SDS011;38508;53.158;6.614;2023-02-28T10:29:46;12.40;;;6.30;;
52614;SDS011;38508;53.158;6.614;2023-02-28T10:32:21;13.15;;;6.95;;
52614;SDS011;38508;53.158;6.614;2023-02-28T10:34:53;11.30;;;6.70;;
52614;SDS011;38508;53.158;6.614;2023-02-28T10:37:22;12.90;;;6.65;;
52614;SDS011;38508;53.158;6.614;2023-02-28T10:39:48;7.78;;;4.95;;
52614;SDS011;38508;53.158;6.614;2023-02-28T10:42:23;8.63;;;4.72;;
52614;SDS011;38508;53.158;6.614;2023-02-28T10:47:59;7.90;;;4.38;;
52614;SDS011;38508;53.158;6.614;2023-02-28T11:01:34;7.50;;;4.03;;
52614;SDS011;38508;53.158;6.614;2023-02-28T11:06:47;7.80;;;4.20;;
52614;SDS011;38508;53.158;6.614;2023-02-28T11:09:24;7.28;;;4.38;;
52614;SDS011;38508;53.158;6.614;2023-02-28T11:11:57;10.77;;;4.38;;
52614;SDS011;38508;53.158;6.614;2023-02-28T11:14:24;9.23;;;4.50;;
52614;SDS011;38508;53.158;6.614;2023-02-28T11:16:52;8.10;;;4.32;;
52614;SDS011;38508;53.158;6.614;2023-02-28T11:19:31;7.65;;;3.60;;
52614;SDS011;38508;53.158;6.614;2023-02-28T11:22:04;9.45;;;3.53;;
52614;SDS011;38508;53.158;6.614;2023-02-28T11:24:35;7.68;;;3.70;;
52614;SDS011;38508;53.158;6.614;2023-02-28T11:27:13;6.30;;;3.53;;
52614;SDS011;38508;53.158;6.614;2023-02-28T11:29:55;7.30;;;3.53;;
52614;SDS011;38508;53.158;6.614;2023-02-28T11:32:23;8.07;;;3.80;;
52614;SDS011;38508;53.158;6.614;2023-02-28T11:35:04;8.38;;;3.20;;
52614;SDS011;38508;53.158;6.614;2023-02-28T11:37:42;4.97;;;3.10;;
52614;SDS011;38508;53.158;6.614;2023-02-28T11:40:14;6.15;;;3.15;;
52614;SDS011;38508;53.158;6.614;2023-02-28T11:52:05;6.57;;;3.20;;
52614;SDS011;38508;53.158;6.614;2023-02-28T11:54:22;6.97;;;3.35;;
52614;SDS011;38508;53.158;6.614;2023-02-28T11:57:00;8.80;;;3.53;;
52614;SDS011;38508;53.158;6.614;2023-02-28T11:59:48;7.13;;;4.00;;
52614;SDS011;38508;53.158;6.614;2023-02-28T12:05:50;6.93;;;3.17;;
52614;SDS011;38508;53.158;6.614;2023-02-28T12:08:35;5.82;;;3.20;;
52614;SDS011;38508;53.158;6.614;2023-02-28T12:18:53;6.72;;;3.78;;
52614;SDS011;38508;53.158;6.614;2023-02-28T12:21:33;8.27;;;4.35;;
52614;SDS011;38508;53.158;6.614;2023-02-28T12:27:05;8.68;;;4.18;;
52614;SDS011;38508;53.158;6.614;2023-02-28T12:30:18;8.40;;;4.00;;
52614;SDS011;38508;53.158;6.614;2023-02-28T12:32:30;8.98;;;4.20;;
52614;SDS011;38508;53.158;6.614;2023-02-28T12:35:21;7.65;;;3.78;;
52614;SDS011;38508;53.158;6.614;2023-02-28T12:40:18;7.78;;;4.43;;
52614;SDS011;38508;53.158;6.614;2023-02-28T12:43:03;8.30;;;4.40;;
52614;SDS011;38508;53.158;6.614;2023-02-28T12:45:43;8.63;;;4.55;;
52614;SDS011;38508;53.158;6.614;2023-02-28T12:48:59;9.18;;;4.43;;
52614;SDS011;38508;53.158;6.614;2023-02-28T12:51:11;7.55;;;4.15;;
52614;SDS011;38508;53.158;6.614;2023-02-28T12:56:35;8.38;;;4.57;;
52614;SDS011;38508;53.158;6.614;2023-02-28T13:00:08;10.02;;;4.65;;
52614;SDS011;38508;53.158;6.614;2023-02-28T13:10:22;7.15;;;4.22;;
52614;SDS011;38508;53.158;6.614;2023-02-28T13:12:52;10.13;;;5.20;;
52614;SDS011;38508;53.158;6.614;2023-02-28T13:15:24;8.77;;;4.47;;
52614;SDS011;38508;53.158;6.614;2023-02-28T13:17:54;7.75;;;5.00;;
52614;SDS011;38508;53.158;6.614;2023-02-28T13:20:33;13.73;;;5.15;;
52614;SDS011;38508;53.158;6.614;2023-02-28T13:23:01;8.07;;;4.85;;
52614;SDS011;38508;53.158;6.614;2023-02-28T13:27:59;7.13;;;4.68;;
52614;SDS011;38508;53.158;6.614;2023-02-28T13:36:08;11.45;;;5.13;;
52614;SDS011;38508;53.158;6.614;2023-02-28T13:38:44;8.75;;;4.90;;
52614;SDS011;38508;53.158;6.614;2023-02-28T13:46:28;8.70;;;4.10;;
52614;SDS011;38508;53.158;6.614;2023-02-28T13:48:54;8.65;;;4.30;;
52614;SDS011;38508;53.158;6.614;2023-02-28T13:57:07;12.63;;;5.13;;
52614;SDS011;38508;53.158;6.614;2023-02-28T14:05:39;10.43;;;5.50;;
52614;SDS011;38508;53.158;6.614;2023-02-28T14:08:07;7.97;;;4.15;;
52614;SDS011;38508;53.158;6.614;2023-02-28T14:10:45;13.07;;;5.75;;
52614;SDS011;38508;53.158;6.614;2023-02-28T14:16:10;9.82;;;5.00;;
52614;SDS011;38508;53.158;6.614;2023-02-28T14:18:40;9.95;;;5.65;;
52614;SDS011;38508;53.158;6.614;2023-02-28T14:21:23;10.07;;;5.85;;
52614;SDS011;38508;53.158;6.614;2023-02-28T14:29:43;9.45;;;5.25;;
52614;SDS011;38508;53.158;6.614;2023-02-28T14:35:34;12.25;;;5.53;;
52614;SDS011;38508;53.158;6.614;2023-02-28T14:38:21;14.88;;;5.90;;
52614;SDS011;38508;53.158;6.614;2023-02-28T14:40:51;9.88;;;5.57;;
52614;SDS011;38508;53.158;6.614;2023-02-28T14:43:28;11.93;;;5.00;;
52614;SDS011;38508;53.158;6.614;2023-02-28T14:45:56;9.63;;;4.78;;
52614;SDS011;38508;53.158;6.614;2023-02-28T14:48:27;11.45;;;5.57;;
52614;SDS011;38508;53.158;6.614;2023-02-28T14:50:54;8.77;;;4.95;;
52614;SDS011;38508;53.158;6.614;2023-02-28T14:53:26;10.57;;;5.70;;
52614;SDS011;38508;53.158;6.614;2023-02-28T14:55:54;9.35;;;5.20;;
52614;SDS011;38508;53.158;6.614;2023-02-28T14:58:30;10.30;;;5.07;;
52614;SDS011;38508;53.158;6.614;2023-02-28T15:00:59;7.38;;;5.22;;
52614;SDS011;38508;53.158;6.614;2023-02-28T15:06:03;9.88;;;4.55;;
52614;SDS011;38508;53.158;6.614;2023-02-28T15:08:30;11.35;;;5.00;;
52614;SDS011;38508;53.158;6.614;2023-02-28T15:13:40;9.45;;;5.35;;
52614;SDS011;38508;53.158;6.614;2023-02-28T15:16:22;7.78;;;5.30;;
52614;SDS011;38508;53.158;6.614;2023-02-28T15:18:59;11.88;;;6.15;;
52614;SDS011;38508;53.158;6.614;2023-02-28T15:21:35;7.57;;;4.82;;
52614;SDS011;38508;53.158;6.614;2023-02-28T15:24:07;10.43;;;5.25;;
52614;SDS011;38508;53.158;6.614;2023-02-28T15:26:41;10.20;;;5.80;;
52614;SDS011;38508;53.158;6.614;2023-02-28T15:29:27;8.65;;;5.40;;
52614;SDS011;38508;53.158;6.614;2023-02-28T15:32:16;11.38;;;5.32;;
52614;SDS011;38508;53.158;6.614;2023-02-28T15:34:53;7.93;;;4.97;;
52614;SDS011;38508;53.158;6.614;2023-02-28T15:40:12;9.57;;;5.57;;
52614;SDS011;38508;53.158;6.614;2023-02-28T15:42:59;9.82;;;5.57;;
52614;SDS011;38508;53.158;6.614;2023-02-28T15:45:36;9.15;;;5.72;;
52614;SDS011;38508;53.158;6.614;2023-02-28T15:48:04;9.43;;;5.25;;
52614;SDS011;38508;53.158;6.614;2023-02-28T15:53:24;8.57;;;4.90;;
52614;SDS011;38508;53.158;6.614;2023-02-28T15:55:55;8.10;;;4.70;;
52614;SDS011;38508;53.158;6.614;2023-02-28T15:58:26;9.32;;;4.88;;
52614;SDS011;38508;53.158;6.614;2023-02-28T16:01:04;6.40;;;4.40;;
52614;SDS011;38508;53.158;6.614;2023-02-28T16:03:37;6.85;;;4.15;;
52614;SDS011;38508;53.158;6.614;2023-02-28T16:08:47;6.15;;;4.15;;
52614;SDS011;38508;53.158;6.614;2023-02-28T16:11:13;5.97;;;4.00;;
52614;SDS011;38508;53.158;6.614;2023-02-28T16:13:40;6.80;;;4.78;;
52614;SDS011;38508;53.158;6.614;2023-02-28T16:16:05;7.93;;;4.47;;
52614;SDS011;38508;53.158;6.614;2023-02-28T16:18:31;10.50;;;4.65;;
52614;SDS011;38508;53.158;6.614;2023-02-28T16:20:57;6.47;;;4.30;;
52614;SDS011;38508;53.158;6.614;2023-02-28T16:23:23;6.97;;;4.22;;
52614;SDS011;38508;53.158;6.614;2023-02-28T16:25:48;7.68;;;4.30;;
52614;SDS011;38508;53.158;6.614;2023-02-28T16:28:19;6.28;;;3.97;;
52614;SDS011;38508;53.158;6.614;2023-02-28T16:30:57;7.70;;;4.47;;
52614;SDS011;38508;53.158;6.614;2023-02-28T16:33:25;6.70;;;4.07;;
52614;SDS011;38508;53.158;6.614;2023-02-28T16:35:51;8.00;;;4.47;;
52614;SDS011;38508;53.158;6.614;2023-02-28T16:38:17;6.30;;;4.50;;
52614;SDS011;38508;53.158;6.614;2023-02-28T16:40:43;9.75;;;4.90;;
52614;SDS011;38508;53.158;6.614;2023-02-28T16:43:14;10.13;;;5.20;;
52614;SDS011;38508;53.158;6.614;2023-02-28T16:45:44;9.00;;;5.13;;
52614;SDS011;38508;53.158;6.614;2023-02-28T16:48:18;8.52;;;5.18;;
52614;SDS011;38508;53.158;6.614;2023-02-28T16:50:44;9.80;;;5.68;;
52614;SDS011;38508;53.158;6.614;2023-02-28T16:53:10;12.18;;;6.15;;
52614;SDS011;38508;53.158;6.614;2023-02-28T16:55:35;9.57;;;5.75;;
52614;SDS011;38508;53.158;6.614;2023-02-28T16:58:02;9.80;;;5.70;;
52614;SDS011;38508;53.158;6.614;2023-02-28T17:00:30;7.10;;;5.60;;
52614;SDS011;38508;53.158;6.614;2023-02-28T17:02:57;10.18;;;6.18;;
52614;SDS011;38508;53.158;6.614;2023-02-28T17:05:24;11.27;;;5.97;;
52614;SDS011;38508;53.158;6.614;2023-02-28T17:07:53;9.93;;;6.22;;
52614;SDS011;38508;53.158;6.614;2023-02-28T17:10:21;12.20;;;6.55;;
52614;SDS011;38508;53.158;6.614;2023-02-28T17:12:48;8.45;;;5.57;;
52614;SDS011;38508;53.158;6.614;2023-02-28T17:15:15;8.68;;;6.22;;
52614;SDS011;38508;53.158;6.614;2023-02-28T17:17:43;9.52;;;5.40;;
52614;SDS011;38508;53.158;6.614;2023-02-28T17:20:13;10.68;;;6.22;;
52614;SDS011;38508;53.158;6.614;2023-02-28T17:22:40;11.50;;;6.07;;
52614;SDS011;38508;53.158;6.614;2023-02-28T17:25:07;12.32;;;5.90;;
52614;SDS011;38508;53.158;6.614;2023-02-28T17:27:34;10.20;;;6.50;;
52614;SDS011;38508;53.158;6.614;2023-02-28T17:30:00;10.63;;;6.18;;
52614;SDS011;38508;53.158;6.614;2023-02-28T17:32:26;10.18;;;6.65;;
52614;SDS011;38508;53.158;6.614;2023-02-28T17:34:52;10.13;;;6.55;;
52614;SDS011;38508;53.158;6.614;2023-02-28T17:37:18;10.73;;;6.68;;
52614;SDS011;38508;53.158;6.614;2023-02-28T17:39:44;9.57;;;6.32;;
52614;SDS011;38508;53.158;6.614;2023-02-28T17:42:10;11.02;;;6.95;;